sensor_id;sensor_type;location;lat;lon;timestamp;temperature;humidity
17399;DHT22;8817;48.170;8.592;2022-12-18T00:02:20;-0.70;50.50
17399;DHT22;8817;48.170;8.592;2022-12-18T00:04:47;-0.60;50.60
17399;DHT22;8817;48.170;8.592;2022-12-18T00:07:14;-0.60;50.60
17399;DHT22;8817;48.170;8.592;2022-12-18T00:09:41;-0.60;50.50
17399;DHT22;8817;48.170;8.592;2022-12-18T00:12:08;-0.50;50.50
17399;DHT22;8817;48.170;8.592;2022-12-18T00:14:35;-0.50;50.40
17399;DHT22;8817;48.170;8.592;2022-12-18T00:17:03;-0.50;50.40
17399;DHT22;8817;48.170;8.592;2022-12-18T00:19:30;-0.40;50.50
17399;DHT22;8817;48.170;8.592;2022-12-18T00:21:57;-0.40;50.50
17399;DHT22;8817;48.170;8.592;2022-12-18T00:24:24;-0.30;50.50
17399;DHT22;8817;48.170;8.592;2022-12-18T00:26:51;-0.30;50.50
17399;DHT22;8817;48.170;8.592;2022-12-18T00:29:18;-0.30;50.40
17399;DHT22;8817;48.170;8.592;2022-12-18T00:31:45;-0.30;50.30
17399;DHT22;8817;48.170;8.592;2022-12-18T00:34:13;-0.30;50.30
17399;DHT22;8817;48.170;8.592;2022-12-18T00:36:40;-0.20;50.30
17399;DHT22;8817;48.170;8.592;2022-12-18T00:39:08;-0.30;50.30
17399;DHT22;8817;48.170;8.592;2022-12-18T00:41:34;-0.30;50.30
17399;DHT22;8817;48.170;8.592;2022-12-18T00:44:19;-0.30;50.30
17399;DHT22;8817;48.170;8.592;2022-12-18T00:46:47;-0.30;50.30
17399;DHT22;8817;48.170;8.592;2022-12-18T00:49:17;-0.30;50.30
17399;DHT22;8817;48.170;8.592;2022-12-18T00:51:44;-0.30;50.30
17399;DHT22;8817;48.170;8.592;2022-12-18T00:54:11;-0.30;50.40
17399;DHT22;8817;48.170;8.592;2022-12-18T00:56:39;-0.30;50.40
17399;DHT22;8817;48.170;8.592;2022-12-18T00:59:06;-0.30;50.40
17399;DHT22;8817;48.170;8.592;2022-12-18T01:01:33;-0.30;50.40
17399;DHT22;8817;48.170;8.592;2022-12-18T01:04:01;-0.30;50.40
17399;DHT22;8817;48.170;8.592;2022-12-18T01:06:29;-0.20;50.50
17399;DHT22;8817;48.170;8.592;2022-12-18T01:08:56;-0.20;50.40
17399;DHT22;8817;48.170;8.592;2022-12-18T01:11:24;-0.20;50.40
17399;DHT22;8817;48.170;8.592;2022-12-18T01:13:52;-0.20;50.40
17399;DHT22;8817;48.170;8.592;2022-12-18T01:16:19;-0.20;50.40
17399;DHT22;8817;48.170;8.592;2022-12-18T01:18:46;-0.20;50.40
17399;DHT22;8817;48.170;8.592;2022-12-18T01:21:15;-0.10;50.50
17399;DHT22;8817;48.170;8.592;2022-12-18T01:23:43;-0.20;50.40
17399;DHT22;8817;48.170;8.592;2022-12-18T01:26:12;-0.20;50.40
17399;DHT22;8817;48.170;8.592;2022-12-18T01:28:40;-0.20;50.40
17399;DHT22;8817;48.170;8.592;2022-12-18T01:31:15;-0.20;50.40
17399;DHT22;8817;48.170;8.592;2022-12-18T01:33:42;-0.20;50.40
17399;DHT22;8817;48.170;8.592;2022-12-18T01:36:15;-0.10;50.50
17399;DHT22;8817;48.170;8.592;2022-12-18T01:38:43;-0.10;50.50
17399;DHT22;8817;48.170;8.592;2022-12-18T01:41:11;-0.10;50.50
17399;DHT22;8817;48.170;8.592;2022-12-18T01:43:42;-0.10;50.50
17399;DHT22;8817;48.170;8.592;2022-12-18T01:46:09;-0.10;50.50
17399;DHT22;8817;48.170;8.592;2022-12-18T01:48:37;-0.10;50.50
17399;DHT22;8817;48.170;8.592;2022-12-18T01:51:04;-0.10;50.50
17399;DHT22;8817;48.170;8.592;2022-12-18T01:53:32;-0.10;50.50
17399;DHT22;8817;48.170;8.592;2022-12-18T01:56:00;0.00;50.50
17399;DHT22;8817;48.170;8.592;2022-12-18T01:58:32;0.00;50.50
17399;DHT22;8817;48.170;8.592;2022-12-18T02:01:00;0.00;50.50
17399;DHT22;8817;48.170;8.592;2022-12-18T02:03:27;0.00;50.50
17399;DHT22;8817;48.170;8.592;2022-12-18T02:05:58;0.00;50.50
17399;DHT22;8817;48.170;8.592;2022-12-18T02:08:29;0.00;50.50
17399;DHT22;8817;48.170;8.592;2022-12-18T02:11:04;0.00;50.40
17399;DHT22;8817;48.170;8.592;2022-12-18T02:13:43;0.10;50.50
17399;DHT22;8817;48.170;8.592;2022-12-18T02:16:19;0.10;50.50
17399;DHT22;8817;48.170;8.592;2022-12-18T02:18:51;0.10;50.50
17399;DHT22;8817;48.170;8.592;2022-12-18T02:21:28;0.10;50.50
17399;DHT22;8817;48.170;8.592;2022-12-18T02:24:15;0.10;50.60
17399;DHT22;8817;48.170;8.592;2022-12-18T02:26:48;0.10;51.10
17399;DHT22;8817;48.170;8.592;2022-12-18T02:29:20;0.10;50.60
17399;DHT22;8817;48.170;8.592;2022-12-18T02:31:51;0.20;50.60
17399;DHT22;8817;48.170;8.592;2022-12-18T02:34:21;0.10;50.60
17399;DHT22;8817;48.170;8.592;2022-12-18T02:36:50;0.20;50.60
17399;DHT22;8817;48.170;8.592;2022-12-18T02:39:18;0.20;50.60
17399;DHT22;8817;48.170;8.592;2022-12-18T02:41:48;0.20;50.60
17399;DHT22;8817;48.170;8.592;2022-12-18T02:44:15;0.20;50.60
17399;DHT22;8817;48.170;8.592;2022-12-18T02:46:43;0.20;50.60
17399;DHT22;8817;48.170;8.592;2022-12-18T02:49:20;0.20;50.60
17399;DHT22;8817;48.170;8.592;2022-12-18T02:51:53;0.20;50.60
17399;DHT22;8817;48.170;8.592;2022-12-18T02:54:31;0.20;50.60
17399;DHT22;8817;48.170;8.592;2022-12-18T02:57:08;0.20;50.60
17399;DHT22;8817;48.170;8.592;2022-12-18T02:59:43;0.20;50.60
17399;DHT22;8817;48.170;8.592;2022-12-18T03:02:22;0.20;50.60
17399;DHT22;8817;48.170;8.592;2022-12-18T03:04:53;0.30;50.70
17399;DHT22;8817;48.170;8.592;2022-12-18T03:07:27;0.30;50.70
17399;DHT22;8817;48.170;8.592;2022-12-18T03:09:57;0.30;50.70
17399;DHT22;8817;48.170;8.592;2022-12-18T03:12:29;0.30;50.70
17399;DHT22;8817;48.170;8.592;2022-12-18T03:15:00;0.30;50.70
17399;DHT22;8817;48.170;8.592;2022-12-18T03:17:32;0.30;51.20
17399;DHT22;8817;48.170;8.592;2022-12-18T03:20:03;0.30;50.70
17399;DHT22;8817;48.170;8.592;2022-12-18T03:22:33;0.30;50.60
17399;DHT22;8817;48.170;8.592;2022-12-18T03:25:04;0.30;50.60
17399;DHT22;8817;48.170;8.592;2022-12-18T03:27:36;0.40;50.70
17399;DHT22;8817;48.170;8.592;2022-12-18T03:30:05;0.40;50.70
17399;DHT22;8817;48.170;8.592;2022-12-18T03:32:38;0.40;50.70
17399;DHT22;8817;48.170;8.592;2022-12-18T03:35:07;0.40;50.70
17399;DHT22;8817;48.170;8.592;2022-12-18T03:37:36;0.40;50.70
17399;DHT22;8817;48.170;8.592;2022-12-18T03:40:03;0.40;50.70
17399;DHT22;8817;48.170;8.592;2022-12-18T03:42:39;0.40;50.70
17399;DHT22;8817;48.170;8.592;2022-12-18T03:45:12;0.40;50.70
17399;DHT22;8817;48.170;8.592;2022-12-18T03:47:47;0.40;50.70
17399;DHT22;8817;48.170;8.592;2022-12-18T03:50:22;0.40;50.70
17399;DHT22;8817;48.170;8.592;2022-12-18T03:52:56;0.40;50.70
17399;DHT22;8817;48.170;8.592;2022-12-18T03:55:25;0.40;50.70
17399;DHT22;8817;48.170;8.592;2022-12-18T03:57:55;0.40;50.70
17399;DHT22;8817;48.170;8.592;2022-12-18T04:00:23;0.40;50.70
17399;DHT22;8817;48.170;8.592;2022-12-18T04:02:52;0.40;50.70
17399;DHT22;8817;48.170;8.592;2022-12-18T04:05:20;0.40;50.70
17399;DHT22;8817;48.170;8.592;2022-12-18T04:07:49;0.40;50.70
17399;DHT22;8817;48.170;8.592;2022-12-18T04:10:16;0.40;50.70
17399;DHT22;8817;48.170;8.592;2022-12-18T04:12:43;0.40;50.70
17399;DHT22;8817;48.170;8.592;2022-12-18T04:15:12;0.40;50.70
17399;DHT22;8817;48.170;8.592;2022-12-18T04:17:46;0.40;50.70
17399;DHT22;8817;48.170;8.592;2022-12-18T04:20:14;0.40;50.70
17399;DHT22;8817;48.170;8.592;2022-12-18T04:22:41;0.40;50.70
17399;DHT22;8817;48.170;8.592;2022-12-18T04:25:08;0.50;50.80
17399;DHT22;8817;48.170;8.592;2022-12-18T04:27:38;0.40;50.70
17399;DHT22;8817;48.170;8.592;2022-12-18T04:30:06;0.40;50.80
17399;DHT22;8817;48.170;8.592;2022-12-18T04:32:35;0.40;50.80
17399;DHT22;8817;48.170;8.592;2022-12-18T04:35:02;0.40;50.80
17399;DHT22;8817;48.170;8.592;2022-12-18T04:37:32;0.40;50.70
17399;DHT22;8817;48.170;8.592;2022-12-18T04:39:59;0.40;50.70
17399;DHT22;8817;48.170;8.592;2022-12-18T04:42:26;0.40;50.70
17399;DHT22;8817;48.170;8.592;2022-12-18T04:44:52;0.50;50.80
17399;DHT22;8817;48.170;8.592;2022-12-18T04:47:19;0.50;50.80
17399;DHT22;8817;48.170;8.592;2022-12-18T04:49:47;0.40;50.80
17399;DHT22;8817;48.170;8.592;2022-12-18T04:52:14;0.40;50.70
17399;DHT22;8817;48.170;8.592;2022-12-18T04:54:41;0.40;50.70
17399;DHT22;8817;48.170;8.592;2022-12-18T04:57:08;0.40;50.70
17399;DHT22;8817;48.170;8.592;2022-12-18T04:59:35;0.40;50.70
17399;DHT22;8817;48.170;8.592;2022-12-18T05:02:02;0.40;50.70
17399;DHT22;8817;48.170;8.592;2022-12-18T05:04:28;0.40;50.70
17399;DHT22;8817;48.170;8.592;2022-12-18T05:06:57;0.40;50.70
17399;DHT22;8817;48.170;8.592;2022-12-18T05:09:24;0.30;51.20
17399;DHT22;8817;48.170;8.592;2022-12-18T05:11:50;0.30;50.70
17399;DHT22;8817;48.170;8.592;2022-12-18T05:14:17;0.30;51.30
17399;DHT22;8817;48.170;8.592;2022-12-18T05:16:44;0.30;50.70
17399;DHT22;8817;48.170;8.592;2022-12-18T05:19:12;0.30;50.80
17399;DHT22;8817;48.170;8.592;2022-12-18T05:21:39;0.30;50.80
17399;DHT22;8817;48.170;8.592;2022-12-18T05:24:07;0.30;50.80
17399;DHT22;8817;48.170;8.592;2022-12-18T05:26:34;0.30;50.80
17399;DHT22;8817;48.170;8.592;2022-12-18T05:29:01;0.30;50.80
17399;DHT22;8817;48.170;8.592;2022-12-18T05:31:28;0.30;50.80
17399;DHT22;8817;48.170;8.592;2022-12-18T05:33:55;0.30;50.70
17399;DHT22;8817;48.170;8.592;2022-12-18T05:36:22;0.30;50.80
17399;DHT22;8817;48.170;8.592;2022-12-18T05:38:49;0.30;50.80
17399;DHT22;8817;48.170;8.592;2022-12-18T05:41:17;0.30;50.80
17399;DHT22;8817;48.170;8.592;2022-12-18T05:43:44;0.30;50.80
17399;DHT22;8817;48.170;8.592;2022-12-18T05:46:14;0.30;50.80
17399;DHT22;8817;48.170;8.592;2022-12-18T05:48:41;0.30;50.80
17399;DHT22;8817;48.170;8.592;2022-12-18T05:51:09;0.30;50.80
17399;DHT22;8817;48.170;8.592;2022-12-18T05:53:37;0.30;50.80
17399;DHT22;8817;48.170;8.592;2022-12-18T05:56:06;0.30;50.90
17399;DHT22;8817;48.170;8.592;2022-12-18T05:58:35;0.30;50.80
17399;DHT22;8817;48.170;8.592;2022-12-18T06:01:08;0.30;50.90
17399;DHT22;8817;48.170;8.592;2022-12-18T06:03:35;0.30;50.90
17399;DHT22;8817;48.170;8.592;2022-12-18T06:06:02;0.30;50.80
17399;DHT22;8817;48.170;8.592;2022-12-18T06:08:29;0.30;50.90
17399;DHT22;8817;48.170;8.592;2022-12-18T06:10:56;0.30;50.90
17399;DHT22;8817;48.170;8.592;2022-12-18T06:13:23;0.30;50.90
17399;DHT22;8817;48.170;8.592;2022-12-18T06:15:51;0.20;50.90
17399;DHT22;8817;48.170;8.592;2022-12-18T06:18:18;0.20;50.90
17399;DHT22;8817;48.170;8.592;2022-12-18T06:20:45;0.30;51.00
17399;DHT22;8817;48.170;8.592;2022-12-18T06:23:11;0.30;51.00
17399;DHT22;8817;48.170;8.592;2022-12-18T06:25:39;0.20;51.00
17399;DHT22;8817;48.170;8.592;2022-12-18T06:28:06;0.20;51.00
17399;DHT22;8817;48.170;8.592;2022-12-18T06:30:33;0.30;51.00
17399;DHT22;8817;48.170;8.592;2022-12-18T06:33:01;0.30;51.00
17399;DHT22;8817;48.170;8.592;2022-12-18T06:35:28;0.20;51.00
17399;DHT22;8817;48.170;8.592;2022-12-18T06:37:55;0.20;51.00
17399;DHT22;8817;48.170;8.592;2022-12-18T06:40:21;0.20;51.00
17399;DHT22;8817;48.170;8.592;2022-12-18T06:42:48;0.30;51.10
17399;DHT22;8817;48.170;8.592;2022-12-18T06:45:15;0.30;51.10
17399;DHT22;8817;48.170;8.592;2022-12-18T06:47:42;0.30;51.10
17399;DHT22;8817;48.170;8.592;2022-12-18T06:50:11;0.30;51.60
17399;DHT22;8817;48.170;8.592;2022-12-18T06:52:38;0.30;51.10
17399;DHT22;8817;48.170;8.592;2022-12-18T06:55:06;0.30;51.10
17399;DHT22;8817;48.170;8.592;2022-12-18T06:57:37;0.30;51.60
17399;DHT22;8817;48.170;8.592;2022-12-18T07:00:06;0.30;51.10
17399;DHT22;8817;48.170;8.592;2022-12-18T07:02:33;0.30;51.10
17399;DHT22;8817;48.170;8.592;2022-12-18T07:05:00;0.30;51.10
17399;DHT22;8817;48.170;8.592;2022-12-18T07:07:28;0.40;51.10
17399;DHT22;8817;48.170;8.592;2022-12-18T07:09:55;0.30;51.10
17399;DHT22;8817;48.170;8.592;2022-12-18T07:12:23;0.40;51.20
17399;DHT22;8817;48.170;8.592;2022-12-18T07:14:50;0.40;51.10
17399;DHT22;8817;48.170;8.592;2022-12-18T07:17:16;0.40;51.20
17399;DHT22;8817;48.170;8.592;2022-12-18T07:19:43;0.40;51.10
17399;DHT22;8817;48.170;8.592;2022-12-18T07:22:10;0.40;51.30
17399;DHT22;8817;48.170;8.592;2022-12-18T07:24:38;0.40;51.20
17399;DHT22;8817;48.170;8.592;2022-12-18T07:27:05;0.40;51.20
17399;DHT22;8817;48.170;8.592;2022-12-18T07:29:32;0.40;51.10
17399;DHT22;8817;48.170;8.592;2022-12-18T07:31:59;0.40;51.10
17399;DHT22;8817;48.170;8.592;2022-12-18T07:34:26;0.40;51.10
17399;DHT22;8817;48.170;8.592;2022-12-18T07:36:53;0.40;51.20
17399;DHT22;8817;48.170;8.592;2022-12-18T07:39:19;0.40;51.20
17399;DHT22;8817;48.170;8.592;2022-12-18T07:41:48;0.40;51.20
17399;DHT22;8817;48.170;8.592;2022-12-18T07:44:35;0.40;51.20
17399;DHT22;8817;48.170;8.592;2022-12-18T07:47:02;0.50;51.30
17399;DHT22;8817;48.170;8.592;2022-12-18T07:49:29;0.50;51.30
17399;DHT22;8817;48.170;8.592;2022-12-18T07:51:56;0.50;51.30
17399;DHT22;8817;48.170;8.592;2022-12-18T07:54:24;0.50;51.30
17399;DHT22;8817;48.170;8.592;2022-12-18T07:56:52;0.50;51.30
17399;DHT22;8817;48.170;8.592;2022-12-18T07:59:19;0.50;51.30
17399;DHT22;8817;48.170;8.592;2022-12-18T08:01:46;0.60;51.30
17399;DHT22;8817;48.170;8.592;2022-12-18T08:04:12;0.60;51.30
17399;DHT22;8817;48.170;8.592;2022-12-18T08:06:39;0.60;51.30
17399;DHT22;8817;48.170;8.592;2022-12-18T08:09:06;0.60;51.30
17399;DHT22;8817;48.170;8.592;2022-12-18T08:11:34;0.60;51.30
17399;DHT22;8817;48.170;8.592;2022-12-18T08:14:02;0.60;51.30
17399;DHT22;8817;48.170;8.592;2022-12-18T08:16:29;0.60;51.30
17399;DHT22;8817;48.170;8.592;2022-12-18T08:18:56;0.70;51.30
17399;DHT22;8817;48.170;8.592;2022-12-18T08:21:25;0.60;51.30
17399;DHT22;8817;48.170;8.592;2022-12-18T08:23:53;0.70;51.40
17399;DHT22;8817;48.170;8.592;2022-12-18T08:26:21;0.70;51.40
17399;DHT22;8817;48.170;8.592;2022-12-18T08:28:49;0.70;51.40
17399;DHT22;8817;48.170;8.592;2022-12-18T08:31:18;0.70;52.00
17399;DHT22;8817;48.170;8.592;2022-12-18T08:33:47;0.70;51.40
17399;DHT22;8817;48.170;8.592;2022-12-18T08:36:14;0.70;51.40
17399;DHT22;8817;48.170;8.592;2022-12-18T08:38:41;0.70;51.40
17399;DHT22;8817;48.170;8.592;2022-12-18T08:41:10;0.70;51.40
17399;DHT22;8817;48.170;8.592;2022-12-18T08:43:37;0.80;51.40
17399;DHT22;8817;48.170;8.592;2022-12-18T08:46:25;0.80;51.40
17399;DHT22;8817;48.170;8.592;2022-12-18T08:48:53;0.80;51.50
17399;DHT22;8817;48.170;8.592;2022-12-18T08:51:20;0.80;51.50
17399;DHT22;8817;48.170;8.592;2022-12-18T08:53:47;0.80;51.50
17399;DHT22;8817;48.170;8.592;2022-12-18T08:56:14;0.90;51.60
17399;DHT22;8817;48.170;8.592;2022-12-18T08:58:41;0.90;51.60
17399;DHT22;8817;48.170;8.592;2022-12-18T09:01:09;0.90;51.50
17399;DHT22;8817;48.170;8.592;2022-12-18T09:03:38;0.90;51.50
17399;DHT22;8817;48.170;8.592;2022-12-18T09:06:06;1.00;51.50
17399;DHT22;8817;48.170;8.592;2022-12-18T09:08:33;1.00;51.50
17399;DHT22;8817;48.170;8.592;2022-12-18T09:11:03;1.00;51.60
17399;DHT22;8817;48.170;8.592;2022-12-18T09:13:31;1.00;51.60
17399;DHT22;8817;48.170;8.592;2022-12-18T09:15:58;1.10;51.70
17399;DHT22;8817;48.170;8.592;2022-12-18T09:18:25;1.10;51.60
17399;DHT22;8817;48.170;8.592;2022-12-18T09:20:53;1.10;51.60
17399;DHT22;8817;48.170;8.592;2022-12-18T09:23:22;1.10;51.60
17399;DHT22;8817;48.170;8.592;2022-12-18T09:25:49;1.10;51.60
17399;DHT22;8817;48.170;8.592;2022-12-18T09:28:17;1.20;51.70
17399;DHT22;8817;48.170;8.592;2022-12-18T09:30:46;1.20;51.70
17399;DHT22;8817;48.170;8.592;2022-12-18T09:33:14;1.20;51.70
17399;DHT22;8817;48.170;8.592;2022-12-18T09:35:43;1.30;51.70
17399;DHT22;8817;48.170;8.592;2022-12-18T09:38:13;1.30;51.70
17399;DHT22;8817;48.170;8.592;2022-12-18T09:40:42;1.30;51.70
17399;DHT22;8817;48.170;8.592;2022-12-18T09:43:14;1.30;51.70
17399;DHT22;8817;48.170;8.592;2022-12-18T09:45:45;1.30;51.70
17399;DHT22;8817;48.170;8.592;2022-12-18T09:48:17;1.40;51.70
17399;DHT22;8817;48.170;8.592;2022-12-18T09:50:46;1.40;51.80
17399;DHT22;8817;48.170;8.592;2022-12-18T09:53:19;1.40;51.90
17399;DHT22;8817;48.170;8.592;2022-12-18T09:55:48;1.40;51.80
17399;DHT22;8817;48.170;8.592;2022-12-18T09:58:27;1.50;51.80
17399;DHT22;8817;48.170;8.592;2022-12-18T10:00:56;1.50;51.80
17399;DHT22;8817;48.170;8.592;2022-12-18T10:03:23;1.50;51.80
17399;DHT22;8817;48.170;8.592;2022-12-18T10:05:56;1.50;52.40
17399;DHT22;8817;48.170;8.592;2022-12-18T10:08:34;1.60;51.90
17399;DHT22;8817;48.170;8.592;2022-12-18T10:11:20;1.60;51.90
17399;DHT22;8817;48.170;8.592;2022-12-18T10:13:53;1.70;51.90
17399;DHT22;8817;48.170;8.592;2022-12-18T10:16:29;1.70;51.90
17399;DHT22;8817;48.170;8.592;2022-12-18T10:19:10;1.70;52.00
17399;DHT22;8817;48.170;8.592;2022-12-18T10:21:42;1.70;52.00
17399;DHT22;8817;48.170;8.592;2022-12-18T10:24:20;1.80;52.10
17399;DHT22;8817;48.170;8.592;2022-12-18T10:26:49;1.90;52.10
17399;DHT22;8817;48.170;8.592;2022-12-18T10:29:19;1.90;52.10
17399;DHT22;8817;48.170;8.592;2022-12-18T10:31:46;1.90;52.10
17399;DHT22;8817;48.170;8.592;2022-12-18T10:34:13;2.00;52.10
17399;DHT22;8817;48.170;8.592;2022-12-18T10:36:42;2.00;52.00
17399;DHT22;8817;48.170;8.592;2022-12-18T10:39:19;2.00;51.90
17399;DHT22;8817;48.170;8.592;2022-12-18T10:41:47;2.00;52.00
17399;DHT22;8817;48.170;8.592;2022-12-18T10:44:19;2.10;52.50
17399;DHT22;8817;48.170;8.592;2022-12-18T10:46:49;2.10;52.00
17399;DHT22;8817;48.170;8.592;2022-12-18T10:49:22;2.10;52.10
17399;DHT22;8817;48.170;8.592;2022-12-18T10:51:50;2.20;52.10
17399;DHT22;8817;48.170;8.592;2022-12-18T10:54:21;2.20;52.10
17399;DHT22;8817;48.170;8.592;2022-12-18T10:56:49;2.20;52.10
17399;DHT22;8817;48.170;8.592;2022-12-18T10:59:17;2.30;52.20
17399;DHT22;8817;48.170;8.592;2022-12-18T11:01:50;2.30;52.10
17399;DHT22;8817;48.170;8.592;2022-12-18T11:04:20;2.30;52.60
17399;DHT22;8817;48.170;8.592;2022-12-18T11:06:59;2.30;52.00
17399;DHT22;8817;48.170;8.592;2022-12-18T11:09:28;2.40;52.10
17399;DHT22;8817;48.170;8.592;2022-12-18T11:11:59;2.40;52.20
17399;DHT22;8817;48.170;8.592;2022-12-18T11:14:28;2.40;52.20
17399;DHT22;8817;48.170;8.592;2022-12-18T11:16:56;2.40;52.20
17399;DHT22;8817;48.170;8.592;2022-12-18T11:19:32;2.50;52.20
17399;DHT22;8817;48.170;8.592;2022-12-18T11:22:00;2.50;52.20
17399;DHT22;8817;48.170;8.592;2022-12-18T11:24:30;2.60;52.30
17399;DHT22;8817;48.170;8.592;2022-12-18T11:26:59;2.60;52.20
17399;DHT22;8817;48.170;8.592;2022-12-18T11:29:34;2.60;52.20
17399;DHT22;8817;48.170;8.592;2022-12-18T11:32:30;2.70;52.20
17399;DHT22;8817;48.170;8.592;2022-12-18T11:35:04;2.70;52.10
17399;DHT22;8817;48.170;8.592;2022-12-18T11:37:35;2.70;52.10
17399;DHT22;8817;48.170;8.592;2022-12-18T11:40:09;2.70;52.00
17399;DHT22;8817;48.170;8.592;2022-12-18T11:42:43;2.70;51.90
17399;DHT22;8817;48.170;8.592;2022-12-18T11:45:27;2.70;52.00
17399;DHT22;8817;48.170;8.592;2022-12-18T11:47:58;2.70;52.00
17399;DHT22;8817;48.170;8.592;2022-12-18T11:50:28;2.60;52.00
17399;DHT22;8817;48.170;8.592;2022-12-18T11:52:56;2.70;52.20
17399;DHT22;8817;48.170;8.592;2022-12-18T11:55:31;2.70;52.40
17399;DHT22;8817;48.170;8.592;2022-12-18T11:58:05;2.70;52.30
17399;DHT22;8817;48.170;8.592;2022-12-18T12:00:39;2.70;52.20
17399;DHT22;8817;48.170;8.592;2022-12-18T12:03:39;2.80;52.30
17399;DHT22;8817;48.170;8.592;2022-12-18T12:06:15;2.80;52.30
17399;DHT22;8817;48.170;8.592;2022-12-18T12:09:00;2.80;52.30
17399;DHT22;8817;48.170;8.592;2022-12-18T12:11:35;2.90;52.40
17399;DHT22;8817;48.170;8.592;2022-12-18T12:14:17;2.90;52.40
17399;DHT22;8817;48.170;8.592;2022-12-18T12:16:50;2.90;52.40
17399;DHT22;8817;48.170;8.592;2022-12-18T12:19:32;3.00;52.30
17399;DHT22;8817;48.170;8.592;2022-12-18T12:22:07;3.00;52.40
17399;DHT22;8817;48.170;8.592;2022-12-18T12:24:44;3.10;52.40
17399;DHT22;8817;48.170;8.592;2022-12-18T12:27:23;3.10;52.40
17399;DHT22;8817;48.170;8.592;2022-12-18T12:30:01;3.10;52.40
17399;DHT22;8817;48.170;8.592;2022-12-18T12:32:50;3.20;52.90
17399;DHT22;8817;48.170;8.592;2022-12-18T12:35:29;3.20;52.40
17399;DHT22;8817;48.170;8.592;2022-12-18T12:38:06;3.20;52.40
17399;DHT22;8817;48.170;8.592;2022-12-18T12:40:36;3.20;52.30
17399;DHT22;8817;48.170;8.592;2022-12-18T12:43:19;3.20;52.20
17399;DHT22;8817;48.170;8.592;2022-12-18T12:45:49;3.20;52.20
17399;DHT22;8817;48.170;8.592;2022-12-18T12:48:25;3.30;52.20
17399;DHT22;8817;48.170;8.592;2022-12-18T12:50:55;3.20;52.20
17399;DHT22;8817;48.170;8.592;2022-12-18T12:53:26;3.30;52.30
17399;DHT22;8817;48.170;8.592;2022-12-18T12:55:56;3.30;52.20
17399;DHT22;8817;48.170;8.592;2022-12-18T12:58:30;3.30;52.20
17399;DHT22;8817;48.170;8.592;2022-12-18T13:01:08;3.30;52.10
17399;DHT22;8817;48.170;8.592;2022-12-18T13:03:46;3.30;52.10
17399;DHT22;8817;48.170;8.592;2022-12-18T13:06:23;3.20;52.00
17399;DHT22;8817;48.170;8.592;2022-12-18T13:08:53;3.20;52.00
17399;DHT22;8817;48.170;8.592;2022-12-18T13:11:31;3.20;52.00
17399;DHT22;8817;48.170;8.592;2022-12-18T13:14:29;3.10;51.90
17399;DHT22;8817;48.170;8.592;2022-12-18T13:17:28;3.10;52.00
17399;DHT22;8817;48.170;8.592;2022-12-18T13:20:11;3.10;52.10
17399;DHT22;8817;48.170;8.592;2022-12-18T13:22:42;3.10;52.10
17399;DHT22;8817;48.170;8.592;2022-12-18T13:25:36;3.10;52.10
17399;DHT22;8817;48.170;8.592;2022-12-18T13:28:06;3.00;52.10
17399;DHT22;8817;48.170;8.592;2022-12-18T13:30:52;3.10;52.10
17399;DHT22;8817;48.170;8.592;2022-12-18T13:33:47;3.00;52.10
17399;DHT22;8817;48.170;8.592;2022-12-18T13:36:27;3.00;52.10
17399;DHT22;8817;48.170;8.592;2022-12-18T13:39:23;3.00;52.00
17399;DHT22;8817;48.170;8.592;2022-12-18T13:41:52;3.00;52.10
17399;DHT22;8817;48.170;8.592;2022-12-18T13:44:28;3.00;52.00
17399;DHT22;8817;48.170;8.592;2022-12-18T13:46:58;3.00;52.00
17399;DHT22;8817;48.170;8.592;2022-12-18T13:49:29;2.90;52.00
17399;DHT22;8817;48.170;8.592;2022-12-18T13:51:59;3.00;52.10
17399;DHT22;8817;48.170;8.592;2022-12-18T13:54:33;3.00;52.10
17399;DHT22;8817;48.170;8.592;2022-12-18T13:57:01;3.00;52.00
17399;DHT22;8817;48.170;8.592;2022-12-18T13:59:34;2.90;52.00
17399;DHT22;8817;48.170;8.592;2022-12-18T14:02:17;2.90;52.00
17399;DHT22;8817;48.170;8.592;2022-12-18T14:04:46;2.90;52.10
17399;DHT22;8817;48.170;8.592;2022-12-18T14:07:14;2.90;52.10
17399;DHT22;8817;48.170;8.592;2022-12-18T14:09:43;2.90;52.10
17399;DHT22;8817;48.170;8.592;2022-12-18T14:12:16;2.90;52.10
17399;DHT22;8817;48.170;8.592;2022-12-18T14:15:01;2.90;52.10
17399;DHT22;8817;48.170;8.592;2022-12-18T14:17:30;2.90;52.10
17399;DHT22;8817;48.170;8.592;2022-12-18T14:19:58;2.90;52.20
17399;DHT22;8817;48.170;8.592;2022-12-18T14:22:25;2.90;52.70
17399;DHT22;8817;48.170;8.592;2022-12-18T14:25:16;2.90;52.10
17399;DHT22;8817;48.170;8.592;2022-12-18T14:27:45;2.90;52.10
17399;DHT22;8817;48.170;8.592;2022-12-18T14:30:28;2.90;52.00
17399;DHT22;8817;48.170;8.592;2022-12-18T14:33:04;2.90;52.00
17399;DHT22;8817;48.170;8.592;2022-12-18T14:35:31;2.80;51.90
17399;DHT22;8817;48.170;8.592;2022-12-18T14:38:20;2.80;51.90
17399;DHT22;8817;48.170;8.592;2022-12-18T14:40:52;2.80;52.40
17399;DHT22;8817;48.170;8.592;2022-12-18T14:43:19;2.80;51.90
17399;DHT22;8817;48.170;8.592;2022-12-18T14:45:46;2.70;51.90
17399;DHT22;8817;48.170;8.592;2022-12-18T14:48:17;2.70;51.90
17399;DHT22;8817;48.170;8.592;2022-12-18T14:50:55;2.70;51.90
17399;DHT22;8817;48.170;8.592;2022-12-18T14:53:26;2.70;51.90
17399;DHT22;8817;48.170;8.592;2022-12-18T14:55:55;2.70;51.90
17399;DHT22;8817;48.170;8.592;2022-12-18T14:58:22;2.60;51.80
17399;DHT22;8817;48.170;8.592;2022-12-18T15:00:49;2.60;51.80
17399;DHT22;8817;48.170;8.592;2022-12-18T15:03:20;2.60;51.80
17399;DHT22;8817;48.170;8.592;2022-12-18T15:05:47;2.60;51.80
17399;DHT22;8817;48.170;8.592;2022-12-18T15:08:28;2.60;51.80
17399;DHT22;8817;48.170;8.592;2022-12-18T15:10:56;2.50;51.70
17399;DHT22;8817;48.170;8.592;2022-12-18T15:13:23;2.50;51.70
17399;DHT22;8817;48.170;8.592;2022-12-18T15:15:52;2.50;51.80
17399;DHT22;8817;48.170;8.592;2022-12-18T15:18:23;2.50;51.70
17399;DHT22;8817;48.170;8.592;2022-12-18T15:20:53;2.40;51.70
17399;DHT22;8817;48.170;8.592;2022-12-18T15:23:22;2.40;51.70
17399;DHT22;8817;48.170;8.592;2022-12-18T15:25:55;2.40;51.70
17399;DHT22;8817;48.170;8.592;2022-12-18T15:28:25;2.40;51.70
17399;DHT22;8817;48.170;8.592;2022-12-18T15:31:05;2.40;51.80
17399;DHT22;8817;48.170;8.592;2022-12-18T15:33:36;2.30;51.70
17399;DHT22;8817;48.170;8.592;2022-12-18T15:36:05;2.30;51.70
17399;DHT22;8817;48.170;8.592;2022-12-18T15:38:32;2.30;51.70
17399;DHT22;8817;48.170;8.592;2022-12-18T15:40:59;2.30;51.70
17399;DHT22;8817;48.170;8.592;2022-12-18T15:43:26;2.20;51.70
17399;DHT22;8817;48.170;8.592;2022-12-18T15:46:03;2.20;51.70
17399;DHT22;8817;48.170;8.592;2022-12-18T15:48:34;2.20;51.70
17399;DHT22;8817;48.170;8.592;2022-12-18T15:51:01;2.20;51.70
17399;DHT22;8817;48.170;8.592;2022-12-18T15:53:31;2.10;51.60
17399;DHT22;8817;48.170;8.592;2022-12-18T15:55:58;2.10;52.30
17399;DHT22;8817;48.170;8.592;2022-12-18T15:58:43;2.10;51.70
17399;DHT22;8817;48.170;8.592;2022-12-18T16:01:10;2.10;52.30
17399;DHT22;8817;48.170;8.592;2022-12-18T16:03:39;2.00;51.70
17399;DHT22;8817;48.170;8.592;2022-12-18T16:06:06;2.00;51.70
17399;DHT22;8817;48.170;8.592;2022-12-18T16:08:33;2.00;51.70
17399;DHT22;8817;48.170;8.592;2022-12-18T16:11:00;2.00;51.70
17399;DHT22;8817;48.170;8.592;2022-12-18T16:13:27;2.00;51.80
17399;DHT22;8817;48.170;8.592;2022-12-18T16:15:54;2.00;51.90
17399;DHT22;8817;48.170;8.592;2022-12-18T16:18:21;2.00;51.90
17399;DHT22;8817;48.170;8.592;2022-12-18T16:20:49;2.00;51.90
17399;DHT22;8817;48.170;8.592;2022-12-18T16:23:16;2.00;51.90